Sitka, AK

3:02 PM AKDT on September 20, 2014 (GMT -0800)
Port Alexander | Change Station
CLOSE
Current Station
Airport
Location: Port Alexander,
Elevation: 0 ft
Nearby Weather Stations

Elev 0 ft 56.25 °N, 134.65 °W | Updated 5 minutes ago

Light Rain
Light Rain
54 °F
Feels Like 54 °F
N
4
Wind Variable Wind from Variable

Today
High -- | Low -- °F
--% Chance of Precip.
Yesterday
High -- | Low -- °F
Precip. -- in
6:42 AM 7:05 PM
Waning Crescent, 10% visible
Pressure 29.75 in
Visibility 7.0 miles
Clouds Few 100 ft
Mostly Cloudy 1500 ft
Overcast 3000 ft
Dew Point 54 °F
Humidity 100%
Rainfall 0.00 in
Snow Depth 3 in , 1 in , 0 in
UV 1 out of 12
Pollen Not available.
Air Quality Not available.
Flu Activity Not available.
METAR PAAP 202257Z VRB03KT 7SM -RA FEW001 BKN015 OVC030 12/12 A2975 RMK 70170 401440106 NO SPECI

More Conditions Fewer Conditions

Pressure 29.75 in
Visibility 7.0 miles
Clouds Few 100 ft
Mostly Cloudy 1500 ft
Overcast 3000 ft
Dew Point 54 °F
Humidity 100%
Rainfall 0.00 in
Snow Depth 3 in , 1 in , 0 in
UV 1 out of 12
Pollen Not available.
Air Quality Not available.
Flu Activity Not available.
METAR PAAP 202257Z VRB03KT 7SM -RA FEW001 BKN015 OVC030 12/12 A2975 RMK 70170 401440106 NO SPECI

More Conditions Fewer Conditions

10-Day Weather Forecast

Almanac

Astronomy

Sep. 20, 2014 Rise Set
Actual Time 6:42 AM AKDT 7:05 PM AKDT
Civil Twilight 6:04 AM AKDT 7:43 PM AKDT
Nautical Twilight 5:18 AM AKDT 8:29 PM AKDT
Astronomical Twilight 4:28 AM AKDT 9:18 PM AKDT
Moon 2:57 AM AKDT 5:37 PM AKDT
Length of Visible Light 13h 39m
Length of Day
12h 22m
Tomorrow will be 4m 48s shorter.
Waning Crescent, 10% of the Moon is Illuminated
Today
Waning Crescent
Sep 24
New
Oct 1
First Quarter
Oct 8
Full
Oct 15
Last Quarter

Today's Extremes

State Highs State Lows

Community

WunderPhotos

Upload Photos

1,754,972 photos uploaded!

WunderBlogs® & News

Nearby

Snow Depth

Station Depth Elevation
Atigun Pass 3 in 4800 ft
Indian Pass 1 in 2300 ft
Eagle Summit 0 in 3650 ft
Little Chena Ridge 0 in 2000 ft
Granite Creek 0 in 1240 ft

Earthquake Activity

City Distance Mag. Time & Date
No recent earthquake activity has been reported nearby.
Minimum magnitude displayed is 2.5.

Coastal Water Temperatures

Place Temperature
No Stations Reporting

Nearby Weather Stations